sensor_id;sensor_type;location;lat;lon;timestamp;P1;durP1;ratioP1;P2;durP2;ratioP2
35578;SDS011;21687;48.900;9.188;2022-07-24T00:00:06;14.03;;;12.50;;
35578;SDS011;21687;48.900;9.188;2022-07-24T00:02:33;13.10;;;11.90;;
35578;SDS011;21687;48.900;9.188;2022-07-24T00:05:00;16.63;;;12.20;;
35578;SDS011;21687;48.900;9.188;2022-07-24T00:07:27;12.90;;;11.80;;
35578;SDS011;21687;48.900;9.188;2022-07-24T00:09:53;13.37;;;12.07;;
35578;SDS011;21687;48.900;9.188;2022-07-24T00:12:19;15.53;;;13.10;;
35578;SDS011;21687;48.900;9.188;2022-07-24T00:14:46;14.33;;;12.80;;
35578;SDS011;21687;48.900;9.188;2022-07-24T00:17:12;14.20;;;12.80;;
35578;SDS011;21687;48.900;9.188;2022-07-24T00:19:38;13.73;;;12.30;;
35578;SDS011;21687;48.900;9.188;2022-07-24T00:22:04;15.87;;;13.63;;
35578;SDS011;21687;48.900;9.188;2022-07-24T00:24:31;15.87;;;13.13;;
35578;SDS011;21687;48.900;9.188;2022-07-24T00:26:57;14.37;;;13.17;;
35578;SDS011;21687;48.900;9.188;2022-07-24T00:29:25;17.67;;;12.60;;
35578;SDS011;21687;48.900;9.188;2022-07-24T00:31:52;13.93;;;12.57;;
35578;SDS011;21687;48.900;9.188;2022-07-24T00:34:18;14.27;;;12.97;;
35578;SDS011;21687;48.900;9.188;2022-07-24T00:36:44;14.63;;;13.13;;
35578;SDS011;21687;48.900;9.188;2022-07-24T00:39:10;15.00;;;13.37;;
35578;SDS011;21687;48.900;9.188;2022-07-24T00:41:37;14.10;;;12.80;;
35578;SDS011;21687;48.900;9.188;2022-07-24T00:44:05;13.87;;;12.67;;
35578;SDS011;21687;48.900;9.188;2022-07-24T00:46:37;14.90;;;13.53;;
35578;SDS011;21687;48.900;9.188;2022-07-24T00:49:05;14.77;;;13.13;;
35578;SDS011;21687;48.900;9.188;2022-07-24T00:51:33;14.07;;;12.67;;
35578;SDS011;21687;48.900;9.188;2022-07-24T00:54:02;13.70;;;12.50;;
35578;SDS011;21687;48.900;9.188;2022-07-24T00:56:30;14.03;;;12.73;;
35578;SDS011;21687;48.900;9.188;2022-07-24T00:58:56;13.97;;;12.67;;
35578;SDS011;21687;48.900;9.188;2022-07-24T01:01:24;16.17;;;13.70;;
35578;SDS011;21687;48.900;9.188;2022-07-24T01:03:50;13.93;;;12.73;;
35578;SDS011;21687;48.900;9.188;2022-07-24T01:06:16;14.40;;;13.10;;
35578;SDS011;21687;48.900;9.188;2022-07-24T01:08:44;14.50;;;13.30;;
35578;SDS011;21687;48.900;9.188;2022-07-24T01:11:11;14.13;;;12.80;;
35578;SDS011;21687;48.900;9.188;2022-07-24T01:13:38;13.90;;;12.70;;
35578;SDS011;21687;48.900;9.188;2022-07-24T01:16:05;14.27;;;12.97;;
35578;SDS011;21687;48.900;9.188;2022-07-24T01:18:32;14.70;;;13.40;;
35578;SDS011;21687;48.900;9.188;2022-07-24T01:20:58;13.97;;;12.67;;
35578;SDS011;21687;48.900;9.188;2022-07-24T01:23:25;14.13;;;12.83;;
35578;SDS011;21687;48.900;9.188;2022-07-24T01:25:51;14.43;;;13.20;;
35578;SDS011;21687;48.900;9.188;2022-07-24T01:28:17;18.40;;;15.50;;
35578;SDS011;21687;48.900;9.188;2022-07-24T01:30:44;15.43;;;14.00;;
35578;SDS011;21687;48.900;9.188;2022-07-24T01:33:10;15.57;;;14.17;;
35578;SDS011;21687;48.900;9.188;2022-07-24T01:35:37;15.37;;;13.97;;
35578;SDS011;21687;48.900;9.188;2022-07-24T01:38:03;15.00;;;13.60;;
35578;SDS011;21687;48.900;9.188;2022-07-24T01:40:29;14.63;;;13.33;;
35578;SDS011;21687;48.900;9.188;2022-07-24T01:42:56;16.57;;;15.00;;
35578;SDS011;21687;48.900;9.188;2022-07-24T01:45:22;16.47;;;14.77;;
35578;SDS011;21687;48.900;9.188;2022-07-24T01:47:49;16.33;;;14.63;;
35578;SDS011;21687;48.900;9.188;2022-07-24T01:50:15;16.23;;;14.83;;
35578;SDS011;21687;48.900;9.188;2022-07-24T01:52:41;16.33;;;14.93;;
35578;SDS011;21687;48.900;9.188;2022-07-24T01:55:08;16.33;;;15.03;;
35578;SDS011;21687;48.900;9.188;2022-07-24T01:57:34;16.50;;;15.00;;
35578;SDS011;21687;48.900;9.188;2022-07-24T02:00:03;16.53;;;15.03;;
35578;SDS011;21687;48.900;9.188;2022-07-24T02:02:30;16.23;;;14.73;;
35578;SDS011;21687;48.900;9.188;2022-07-24T02:04:57;17.00;;;15.30;;
35578;SDS011;21687;48.900;9.188;2022-07-24T02:07:23;17.50;;;15.60;;
35578;SDS011;21687;48.900;9.188;2022-07-24T02:09:49;17.30;;;15.63;;
35578;SDS011;21687;48.900;9.188;2022-07-24T02:12:15;17.53;;;16.03;;
35578;SDS011;21687;48.900;9.188;2022-07-24T02:14:41;16.77;;;15.27;;
35578;SDS011;21687;48.900;9.188;2022-07-24T02:17:07;18.43;;;16.73;;
35578;SDS011;21687;48.900;9.188;2022-07-24T02:19:34;18.13;;;16.33;;
35578;SDS011;21687;48.900;9.188;2022-07-24T02:22:00;17.43;;;15.93;;
35578;SDS011;21687;48.900;9.188;2022-07-24T02:24:26;18.87;;;17.17;;
35578;SDS011;21687;48.900;9.188;2022-07-24T02:26:52;18.13;;;16.20;;
35578;SDS011;21687;48.900;9.188;2022-07-24T02:29:18;18.23;;;16.03;;
35578;SDS011;21687;48.900;9.188;2022-07-24T02:31:45;18.40;;;16.70;;
35578;SDS011;21687;48.900;9.188;2022-07-24T02:34:11;17.63;;;16.03;;
35578;SDS011;21687;48.900;9.188;2022-07-24T02:36:37;18.23;;;16.63;;
35578;SDS011;21687;48.900;9.188;2022-07-24T02:39:03;17.77;;;16.10;;
35578;SDS011;21687;48.900;9.188;2022-07-24T02:41:30;18.30;;;16.63;;
35578;SDS011;21687;48.900;9.188;2022-07-24T02:43:56;17.57;;;15.70;;
35578;SDS011;21687;48.900;9.188;2022-07-24T02:46:22;18.13;;;16.63;;
35578;SDS011;21687;48.900;9.188;2022-07-24T02:48:48;17.97;;;16.20;;
35578;SDS011;21687;48.900;9.188;2022-07-24T02:51:14;17.93;;;16.33;;
35578;SDS011;21687;48.900;9.188;2022-07-24T02:53:41;18.63;;;16.87;;
35578;SDS011;21687;48.900;9.188;2022-07-24T02:56:07;18.47;;;16.70;;
35578;SDS011;21687;48.900;9.188;2022-07-24T02:58:33;17.43;;;15.87;;
35578;SDS011;21687;48.900;9.188;2022-07-24T03:01:00;18.20;;;16.50;;
35578;SDS011;21687;48.900;9.188;2022-07-24T03:03:26;18.20;;;16.50;;
35578;SDS011;21687;48.900;9.188;2022-07-24T03:05:53;19.20;;;17.50;;
35578;SDS011;21687;48.900;9.188;2022-07-24T03:08:19;19.33;;;17.37;;
35578;SDS011;21687;48.900;9.188;2022-07-24T03:10:45;19.20;;;17.37;;
35578;SDS011;21687;48.900;9.188;2022-07-24T03:13:11;18.43;;;16.70;;
35578;SDS011;21687;48.900;9.188;2022-07-24T03:15:37;18.83;;;17.13;;
35578;SDS011;21687;48.900;9.188;2022-07-24T03:18:04;18.77;;;16.87;;
35578;SDS011;21687;48.900;9.188;2022-07-24T03:20:30;18.70;;;17.00;;
35578;SDS011;21687;48.900;9.188;2022-07-24T03:22:56;19.30;;;17.57;;
35578;SDS011;21687;48.900;9.188;2022-07-24T03:25:23;19.57;;;17.70;;
35578;SDS011;21687;48.900;9.188;2022-07-24T03:27:49;20.43;;;18.37;;
35578;SDS011;21687;48.900;9.188;2022-07-24T03:30:16;19.63;;;17.80;;
35578;SDS011;21687;48.900;9.188;2022-07-24T03:32:43;19.67;;;17.87;;
35578;SDS011;21687;48.900;9.188;2022-07-24T03:35:10;19.40;;;17.60;;
35578;SDS011;21687;48.900;9.188;2022-07-24T03:37:36;19.73;;;17.83;;
35578;SDS011;21687;48.900;9.188;2022-07-24T03:40:03;19.97;;;17.87;;
35578;SDS011;21687;48.900;9.188;2022-07-24T03:42:30;20.17;;;18.10;;
35578;SDS011;21687;48.900;9.188;2022-07-24T03:44:56;20.07;;;18.23;;
35578;SDS011;21687;48.900;9.188;2022-07-24T03:47:22;19.60;;;17.80;;
35578;SDS011;21687;48.900;9.188;2022-07-24T03:49:49;18.80;;;17.10;;
35578;SDS011;21687;48.900;9.188;2022-07-24T03:52:15;20.67;;;18.77;;
35578;SDS011;21687;48.900;9.188;2022-07-24T03:54:41;20.13;;;18.03;;
35578;SDS011;21687;48.900;9.188;2022-07-24T03:57:07;20.33;;;18.43;;
35578;SDS011;21687;48.900;9.188;2022-07-24T03:59:34;20.73;;;18.93;;
35578;SDS011;21687;48.900;9.188;2022-07-24T04:02:00;20.27;;;18.37;;
35578;SDS011;21687;48.900;9.188;2022-07-24T04:04:26;19.73;;;17.90;;
35578;SDS011;21687;48.900;9.188;2022-07-24T04:06:52;21.17;;;19.00;;
35578;SDS011;21687;48.900;9.188;2022-07-24T04:09:19;20.50;;;18.47;;
35578;SDS011;21687;48.900;9.188;2022-07-24T04:11:45;20.33;;;18.27;;
35578;SDS011;21687;48.900;9.188;2022-07-24T04:14:12;20.10;;;18.20;;
35578;SDS011;21687;48.900;9.188;2022-07-24T04:16:38;19.10;;;17.30;;
35578;SDS011;21687;48.900;9.188;2022-07-24T04:19:05;19.10;;;17.13;;
35578;SDS011;21687;48.900;9.188;2022-07-24T04:21:31;18.80;;;17.00;;
35578;SDS011;21687;48.900;9.188;2022-07-24T04:23:57;17.40;;;15.70;;
35578;SDS011;21687;48.900;9.188;2022-07-24T04:26:24;17.00;;;15.40;;
35578;SDS011;21687;48.900;9.188;2022-07-24T04:28:51;17.23;;;15.63;;
35578;SDS011;21687;48.900;9.188;2022-07-24T04:31:17;15.30;;;13.90;;
35578;SDS011;21687;48.900;9.188;2022-07-24T04:33:43;16.03;;;14.33;;
35578;SDS011;21687;48.900;9.188;2022-07-24T04:36:10;15.33;;;14.03;;
35578;SDS011;21687;48.900;9.188;2022-07-24T04:38:36;15.57;;;14.00;;
35578;SDS011;21687;48.900;9.188;2022-07-24T04:41:02;14.87;;;13.50;;
35578;SDS011;21687;48.900;9.188;2022-07-24T04:43:29;15.00;;;13.63;;
35578;SDS011;21687;48.900;9.188;2022-07-24T04:45:56;14.80;;;13.50;;
35578;SDS011;21687;48.900;9.188;2022-07-24T04:48:22;15.80;;;14.17;;
35578;SDS011;21687;48.900;9.188;2022-07-24T04:50:50;15.40;;;13.90;;
35578;SDS011;21687;48.900;9.188;2022-07-24T04:53:16;15.30;;;13.73;;
35578;SDS011;21687;48.900;9.188;2022-07-24T04:55:43;15.37;;;13.77;;
35578;SDS011;21687;48.900;9.188;2022-07-24T04:58:09;14.93;;;13.43;;
35578;SDS011;21687;48.900;9.188;2022-07-24T05:00:35;13.87;;;12.57;;
35578;SDS011;21687;48.900;9.188;2022-07-24T05:03:01;15.07;;;13.33;;
35578;SDS011;21687;48.900;9.188;2022-07-24T05:05:27;14.67;;;13.37;;
35578;SDS011;21687;48.900;9.188;2022-07-24T05:07:54;14.43;;;13.13;;
35578;SDS011;21687;48.900;9.188;2022-07-24T05:10:20;14.60;;;13.17;;
35578;SDS011;21687;48.900;9.188;2022-07-24T05:12:47;13.13;;;11.93;;
35578;SDS011;21687;48.900;9.188;2022-07-24T05:15:13;13.47;;;12.33;;
35578;SDS011;21687;48.900;9.188;2022-07-24T05:17:39;13.37;;;12.17;;
35578;SDS011;21687;48.900;9.188;2022-07-24T05:20:06;14.30;;;12.97;;
35578;SDS011;21687;48.900;9.188;2022-07-24T05:22:33;14.97;;;13.50;;
35578;SDS011;21687;48.900;9.188;2022-07-24T05:24:59;15.93;;;12.73;;
35578;SDS011;21687;48.900;9.188;2022-07-24T05:27:25;13.27;;;12.10;;
35578;SDS011;21687;48.900;9.188;2022-07-24T05:29:51;13.47;;;12.07;;
35578;SDS011;21687;48.900;9.188;2022-07-24T05:32:18;12.20;;;11.03;;
35578;SDS011;21687;48.900;9.188;2022-07-24T05:34:44;13.93;;;12.60;;
35578;SDS011;21687;48.900;9.188;2022-07-24T05:37:10;13.13;;;11.77;;
35578;SDS011;21687;48.900;9.188;2022-07-24T05:39:37;13.37;;;12.07;;
35578;SDS011;21687;48.900;9.188;2022-07-24T05:42:03;13.27;;;11.97;;
35578;SDS011;21687;48.900;9.188;2022-07-24T05:44:30;13.07;;;11.73;;
35578;SDS011;21687;48.900;9.188;2022-07-24T05:46:56;13.37;;;12.00;;
35578;SDS011;21687;48.900;9.188;2022-07-24T05:49:25;13.93;;;12.67;;
35578;SDS011;21687;48.900;9.188;2022-07-24T05:51:51;14.73;;;13.33;;
35578;SDS011;21687;48.900;9.188;2022-07-24T05:54:18;14.67;;;13.37;;
35578;SDS011;21687;48.900;9.188;2022-07-24T05:56:44;14.63;;;13.33;;
35578;SDS011;21687;48.900;9.188;2022-07-24T05:59:12;14.57;;;13.07;;
35578;SDS011;21687;48.900;9.188;2022-07-24T06:01:38;14.67;;;13.17;;
35578;SDS011;21687;48.900;9.188;2022-07-24T06:04:04;14.20;;;12.70;;
35578;SDS011;21687;48.900;9.188;2022-07-24T06:06:31;13.33;;;11.93;;
35578;SDS011;21687;48.900;9.188;2022-07-24T06:08:57;13.50;;;12.30;;
35578;SDS011;21687;48.900;9.188;2022-07-24T06:11:23;14.20;;;12.17;;
35578;SDS011;21687;48.900;9.188;2022-07-24T06:13:50;12.10;;;11.00;;
35578;SDS011;21687;48.900;9.188;2022-07-24T06:16:16;12.43;;;11.33;;
35578;SDS011;21687;48.900;9.188;2022-07-24T06:18:42;12.73;;;11.53;;
35578;SDS011;21687;48.900;9.188;2022-07-24T06:21:09;11.60;;;10.70;;
35578;SDS011;21687;48.900;9.188;2022-07-24T06:23:36;13.50;;;11.93;;
35578;SDS011;21687;48.900;9.188;2022-07-24T06:26:03;12.47;;;11.23;;
35578;SDS011;21687;48.900;9.188;2022-07-24T06:28:29;10.50;;;9.50;;
35578;SDS011;21687;48.900;9.188;2022-07-24T06:30:55;11.87;;;10.63;;
35578;SDS011;21687;48.900;9.188;2022-07-24T06:33:22;10.90;;;9.83;;
35578;SDS011;21687;48.900;9.188;2022-07-24T06:35:49;11.47;;;10.10;;
35578;SDS011;21687;48.900;9.188;2022-07-24T06:38:15;11.20;;;10.30;;
35578;SDS011;21687;48.900;9.188;2022-07-24T06:40:42;10.63;;;9.43;;
35578;SDS011;21687;48.900;9.188;2022-07-24T06:43:08;12.93;;;9.10;;
35578;SDS011;21687;48.900;9.188;2022-07-24T06:45:34;11.80;;;10.03;;
35578;SDS011;21687;48.900;9.188;2022-07-24T06:48:01;10.53;;;9.53;;
35578;SDS011;21687;48.900;9.188;2022-07-24T06:50:28;10.40;;;9.50;;
35578;SDS011;21687;48.900;9.188;2022-07-24T06:52:54;10.27;;;9.37;;
35578;SDS011;21687;48.900;9.188;2022-07-24T06:55:21;11.93;;;9.67;;
35578;SDS011;21687;48.900;9.188;2022-07-24T06:57:47;10.00;;;9.00;;
35578;SDS011;21687;48.900;9.188;2022-07-24T07:00:14;9.53;;;8.63;;
35578;SDS011;21687;48.900;9.188;2022-07-24T07:02:40;9.60;;;8.70;;
35578;SDS011;21687;48.900;9.188;2022-07-24T07:05:07;9.73;;;8.77;;
35578;SDS011;21687;48.900;9.188;2022-07-24T07:07:34;9.87;;;9.07;;
35578;SDS011;21687;48.900;9.188;2022-07-24T07:10:02;10.73;;;8.67;;
35578;SDS011;21687;48.900;9.188;2022-07-24T07:12:29;9.40;;;8.13;;
35578;SDS011;21687;48.900;9.188;2022-07-24T07:14:55;9.20;;;8.40;;
35578;SDS011;21687;48.900;9.188;2022-07-24T07:17:24;10.17;;;9.10;;
35578;SDS011;21687;48.900;9.188;2022-07-24T07:19:50;9.43;;;8.60;;
35578;SDS011;21687;48.900;9.188;2022-07-24T07:22:17;9.90;;;8.97;;
35578;SDS011;21687;48.900;9.188;2022-07-24T07:24:43;10.90;;;8.20;;
35578;SDS011;21687;48.900;9.188;2022-07-24T07:27:10;9.50;;;8.53;;
35578;SDS011;21687;48.900;9.188;2022-07-24T07:29:36;12.13;;;8.13;;
35578;SDS011;21687;48.900;9.188;2022-07-24T07:32:02;8.30;;;7.60;;
35578;SDS011;21687;48.900;9.188;2022-07-24T07:34:29;8.87;;;7.97;;
35578;SDS011;21687;48.900;9.188;2022-07-24T07:36:55;9.00;;;8.20;;
35578;SDS011;21687;48.900;9.188;2022-07-24T07:39:21;12.30;;;8.03;;
35578;SDS011;21687;48.900;9.188;2022-07-24T07:41:47;9.57;;;7.90;;
35578;SDS011;21687;48.900;9.188;2022-07-24T07:44:14;8.70;;;7.80;;
35578;SDS011;21687;48.900;9.188;2022-07-24T07:46:40;9.27;;;8.13;;
35578;SDS011;21687;48.900;9.188;2022-07-24T07:49:06;9.30;;;8.50;;
35578;SDS011;21687;48.900;9.188;2022-07-24T07:51:32;9.67;;;8.10;;
35578;SDS011;21687;48.900;9.188;2022-07-24T07:53:59;9.17;;;8.27;;
35578;SDS011;21687;48.900;9.188;2022-07-24T07:56:26;8.03;;;7.23;;
35578;SDS011;21687;48.900;9.188;2022-07-24T07:58:55;10.03;;;7.77;;
35578;SDS011;21687;48.900;9.188;2022-07-24T08:01:22;9.07;;;8.17;;
35578;SDS011;21687;48.900;9.188;2022-07-24T08:03:49;8.47;;;7.67;;
35578;SDS011;21687;48.900;9.188;2022-07-24T08:06:15;11.00;;;8.33;;
35578;SDS011;21687;48.900;9.188;2022-07-24T08:08:41;8.47;;;7.77;;
35578;SDS011;21687;48.900;9.188;2022-07-24T08:11:08;9.30;;;8.07;;
35578;SDS011;21687;48.900;9.188;2022-07-24T08:13:34;10.37;;;8.10;;
35578;SDS011;21687;48.900;9.188;2022-07-24T08:16:00;9.17;;;7.60;;
35578;SDS011;21687;48.900;9.188;2022-07-24T08:18:26;8.67;;;7.87;;
35578;SDS011;21687;48.900;9.188;2022-07-24T08:20:53;8.30;;;7.50;;
35578;SDS011;21687;48.900;9.188;2022-07-24T08:23:19;8.53;;;7.73;;
35578;SDS011;21687;48.900;9.188;2022-07-24T08:25:45;8.60;;;7.90;;
35578;SDS011;21687;48.900;9.188;2022-07-24T08:28:12;8.37;;;7.57;;
35578;SDS011;21687;48.900;9.188;2022-07-24T08:30:38;7.63;;;6.93;;
35578;SDS011;21687;48.900;9.188;2022-07-24T08:33:04;8.43;;;7.70;;
35578;SDS011;21687;48.900;9.188;2022-07-24T08:35:31;8.33;;;7.60;;
35578;SDS011;21687;48.900;9.188;2022-07-24T08:37:57;8.83;;;7.60;;
35578;SDS011;21687;48.900;9.188;2022-07-24T08:40:23;8.60;;;7.80;;
35578;SDS011;21687;48.900;9.188;2022-07-24T08:42:49;8.33;;;7.43;;
35578;SDS011;21687;48.900;9.188;2022-07-24T08:45:16;8.50;;;7.70;;
35578;SDS011;21687;48.900;9.188;2022-07-24T08:47:42;8.37;;;7.57;;
35578;SDS011;21687;48.900;9.188;2022-07-24T08:50:10;7.37;;;6.77;;
35578;SDS011;21687;48.900;9.188;2022-07-24T08:52:36;8.90;;;8.00;;
35578;SDS011;21687;48.900;9.188;2022-07-24T08:55:04;8.07;;;7.37;;
35578;SDS011;21687;48.900;9.188;2022-07-24T08:57:31;8.90;;;8.10;;
35578;SDS011;21687;48.900;9.188;2022-07-24T08:59:57;8.73;;;7.47;;
35578;SDS011;21687;48.900;9.188;2022-07-24T09:02:24;8.73;;;7.87;;
35578;SDS011;21687;48.900;9.188;2022-07-24T09:04:57;9.10;;;7.97;;
35578;SDS011;21687;48.900;9.188;2022-07-24T09:07:25;8.13;;;7.43;;
35578;SDS011;21687;48.900;9.188;2022-07-24T09:10:13;7.77;;;7.07;;
35578;SDS011;21687;48.900;9.188;2022-07-24T09:12:46;8.00;;;7.30;;
35578;SDS011;21687;48.900;9.188;2022-07-24T09:15:17;9.73;;;7.90;;
35578;SDS011;21687;48.900;9.188;2022-07-24T09:17:51;12.90;;;7.50;;
35578;SDS011;21687;48.900;9.188;2022-07-24T09:20:19;8.17;;;7.37;;
35578;SDS011;21687;48.900;9.188;2022-07-24T09:22:57;10.83;;;7.20;;
35578;SDS011;21687;48.900;9.188;2022-07-24T09:25:28;9.70;;;6.97;;
35578;SDS011;21687;48.900;9.188;2022-07-24T09:27:55;8.10;;;7.30;;
35578;SDS011;21687;48.900;9.188;2022-07-24T09:30:37;8.53;;;7.73;;
35578;SDS011;21687;48.900;9.188;2022-07-24T09:38:11;7.90;;;7.20;;
35578;SDS011;21687;48.900;9.188;2022-07-24T09:40:41;9.10;;;7.73;;
35578;SDS011;21687;48.900;9.188;2022-07-24T09:46:01;7.70;;;7.00;;
35578;SDS011;21687;48.900;9.188;2022-07-24T09:48:40;7.97;;;6.50;;
35578;SDS011;21687;48.900;9.188;2022-07-24T09:51:21;6.03;;;5.53;;
35578;SDS011;21687;48.900;9.188;2022-07-24T09:53:52;7.00;;;6.30;;
35578;SDS011;21687;48.900;9.188;2022-07-24T09:56:21;9.80;;;7.00;;
35578;SDS011;21687;48.900;9.188;2022-07-24T09:58:49;8.03;;;7.27;;
35578;SDS011;21687;48.900;9.188;2022-07-24T10:01:18;7.70;;;7.00;;
35578;SDS011;21687;48.900;9.188;2022-07-24T10:03:50;7.90;;;6.80;;
35578;SDS011;21687;48.900;9.188;2022-07-24T10:06:20;8.20;;;7.27;;
35578;SDS011;21687;48.900;9.188;2022-07-24T10:08:50;7.80;;;7.20;;
35578;SDS011;21687;48.900;9.188;2022-07-24T10:11:18;8.53;;;6.87;;
35578;SDS011;21687;48.900;9.188;2022-07-24T10:13:45;7.47;;;6.60;;
35578;SDS011;21687;48.900;9.188;2022-07-24T10:21:32;7.20;;;6.50;;
35578;SDS011;21687;48.900;9.188;2022-07-24T10:29:12;6.93;;;5.53;;
35578;SDS011;21687;48.900;9.188;2022-07-24T10:31:41;6.17;;;5.67;;
35578;SDS011;21687;48.900;9.188;2022-07-24T10:40:03;5.97;;;5.47;;
35578;SDS011;21687;48.900;9.188;2022-07-24T10:43:30;6.57;;;5.53;;
35578;SDS011;21687;48.900;9.188;2022-07-24T10:45:43;6.43;;;5.37;;
35578;SDS011;21687;48.900;9.188;2022-07-24T10:53:23;6.50;;;5.90;;
35578;SDS011;21687;48.900;9.188;2022-07-24T10:58:54;7.00;;;6.00;;
35578;SDS011;21687;48.900;9.188;2022-07-24T11:01:44;6.90;;;5.70;;
35578;SDS011;21687;48.900;9.188;2022-07-24T11:07:07;6.10;;;5.60;;
35578;SDS011;21687;48.900;9.188;2022-07-24T11:10:00;6.30;;;5.80;;
35578;SDS011;21687;48.900;9.188;2022-07-24T11:12:33;6.00;;;5.50;;
35578;SDS011;21687;48.900;9.188;2022-07-24T11:15:08;5.73;;;5.03;;
35578;SDS011;21687;48.900;9.188;2022-07-24T11:17:53;6.60;;;5.93;;
35578;SDS011;21687;48.900;9.188;2022-07-24T11:20:20;6.10;;;5.60;;
35578;SDS011;21687;48.900;9.188;2022-07-24T11:27:52;6.67;;;6.13;;
35578;SDS011;21687;48.900;9.188;2022-07-24T11:30:31;6.20;;;5.70;;
35578;SDS011;21687;48.900;9.188;2022-07-24T11:32:57;6.23;;;5.50;;
35578;SDS011;21687;48.900;9.188;2022-07-24T11:35:27;6.40;;;5.80;;
35578;SDS011;21687;48.900;9.188;2022-07-24T11:37:55;6.63;;;6.13;;
35578;SDS011;21687;48.900;9.188;2022-07-24T11:40:21;6.10;;;5.53;;
35578;SDS011;21687;48.900;9.188;2022-07-24T11:42:53;5.93;;;5.33;;
35578;SDS011;21687;48.900;9.188;2022-07-24T11:45:30;6.30;;;5.70;;
35578;SDS011;21687;48.900;9.188;2022-07-24T11:47:57;6.73;;;5.53;;
35578;SDS011;21687;48.900;9.188;2022-07-24T11:50:24;6.53;;;5.77;;
35578;SDS011;21687;48.900;9.188;2022-07-24T11:52:51;6.47;;;5.87;;
35578;SDS011;21687;48.900;9.188;2022-07-24T11:55:20;6.10;;;5.60;;
35578;SDS011;21687;48.900;9.188;2022-07-24T11:57:50;6.37;;;5.83;;
35578;SDS011;21687;48.900;9.188;2022-07-24T12:00:20;6.07;;;5.47;;
35578;SDS011;21687;48.900;9.188;2022-07-24T12:02:49;6.30;;;5.80;;
35578;SDS011;21687;48.900;9.188;2022-07-24T12:05:30;6.50;;;5.90;;
35578;SDS011;21687;48.900;9.188;2022-07-24T12:07:58;6.37;;;5.73;;
35578;SDS011;21687;48.900;9.188;2022-07-24T12:10:26;6.57;;;5.97;;
35578;SDS011;21687;48.900;9.188;2022-07-24T12:12:53;6.67;;;6.00;;
35578;SDS011;21687;48.900;9.188;2022-07-24T12:15:21;6.73;;;6.10;;
35578;SDS011;21687;48.900;9.188;2022-07-24T12:18:00;6.83;;;6.10;;
35578;SDS011;21687;48.900;9.188;2022-07-24T12:20:38;6.63;;;5.60;;
35578;SDS011;21687;48.900;9.188;2022-07-24T12:23:07;6.77;;;5.90;;
35578;SDS011;21687;48.900;9.188;2022-07-24T12:25:35;6.33;;;5.80;;
35578;SDS011;21687;48.900;9.188;2022-07-24T12:30:30;6.20;;;5.60;;
35578;SDS011;21687;48.900;9.188;2022-07-24T12:38:41;6.63;;;5.97;;
35578;SDS011;21687;48.900;9.188;2022-07-24T12:41:19;5.97;;;5.40;;
35578;SDS011;21687;48.900;9.188;2022-07-24T12:44:00;6.47;;;5.47;;
35578;SDS011;21687;48.900;9.188;2022-07-24T12:51:22;6.50;;;5.70;;
35578;SDS011;21687;48.900;9.188;2022-07-24T12:53:51;5.73;;;5.23;;
35578;SDS011;21687;48.900;9.188;2022-07-24T12:56:19;6.17;;;5.77;;
35578;SDS011;21687;48.900;9.188;2022-07-24T12:59:07;5.93;;;5.43;;
35578;SDS011;21687;48.900;9.188;2022-07-24T13:01:49;6.30;;;5.70;;
35578;SDS011;21687;48.900;9.188;2022-07-24T13:04:21;5.83;;;5.33;;
35578;SDS011;21687;48.900;9.188;2022-07-24T13:06:50;6.43;;;5.20;;
35578;SDS011;21687;48.900;9.188;2022-07-24T13:09:18;6.07;;;5.50;;
35578;SDS011;21687;48.900;9.188;2022-07-24T13:11:46;7.07;;;6.37;;
35578;SDS011;21687;48.900;9.188;2022-07-24T13:14:14;7.47;;;6.77;;
35578;SDS011;21687;48.900;9.188;2022-07-24T13:16:42;6.40;;;5.80;;
35578;SDS011;21687;48.900;9.188;2022-07-24T13:19:10;6.87;;;5.60;;
35578;SDS011;21687;48.900;9.188;2022-07-24T13:21:37;6.50;;;5.90;;
35578;SDS011;21687;48.900;9.188;2022-07-24T13:24:07;6.03;;;5.53;;
35578;SDS011;21687;48.900;9.188;2022-07-24T13:26:34;5.67;;;5.27;;
35578;SDS011;21687;48.900;9.188;2022-07-24T13:29:02;5.80;;;5.37;;
35578;SDS011;21687;48.900;9.188;2022-07-24T13:31:29;6.50;;;5.90;;
35578;SDS011;21687;48.900;9.188;2022-07-24T13:33:56;6.63;;;6.13;;
35578;SDS011;21687;48.900;9.188;2022-07-24T13:36:22;6.10;;;5.60;;
35578;SDS011;21687;48.900;9.188;2022-07-24T13:38:48;6.67;;;6.00;;
35578;SDS011;21687;48.900;9.188;2022-07-24T13:41:15;6.27;;;5.77;;
35578;SDS011;21687;48.900;9.188;2022-07-24T13:43:46;6.77;;;5.50;;
35578;SDS011;21687;48.900;9.188;2022-07-24T13:46:14;6.50;;;5.90;;
35578;SDS011;21687;48.900;9.188;2022-07-24T13:48:41;5.80;;;5.40;;
35578;SDS011;21687;48.900;9.188;2022-07-24T13:51:08;7.63;;;5.70;;
35578;SDS011;21687;48.900;9.188;2022-07-24T13:53:34;6.23;;;5.73;;
35578;SDS011;21687;48.900;9.188;2022-07-24T13:56:03;6.40;;;5.90;;
35578;SDS011;21687;48.900;9.188;2022-07-24T13:58:31;5.97;;;5.57;;
35578;SDS011;21687;48.900;9.188;2022-07-24T14:01:00;6.77;;;6.10;;
35578;SDS011;21687;48.900;9.188;2022-07-24T14:03:29;6.50;;;5.90;;
35578;SDS011;21687;48.900;9.188;2022-07-24T14:06:16;7.23;;;6.63;;
35578;SDS011;21687;48.900;9.188;2022-07-24T14:08:42;6.47;;;5.90;;
35578;SDS011;21687;48.900;9.188;2022-07-24T14:11:09;6.90;;;5.70;;
35578;SDS011;21687;48.900;9.188;2022-07-24T14:13:36;7.20;;;6.50;;
35578;SDS011;21687;48.900;9.188;2022-07-24T14:16:02;9.77;;;5.97;;
35578;SDS011;21687;48.900;9.188;2022-07-24T14:18:29;6.87;;;6.30;;
35578;SDS011;21687;48.900;9.188;2022-07-24T14:20:55;6.53;;;6.03;;
35578;SDS011;21687;48.900;9.188;2022-07-24T14:23:22;6.20;;;5.70;;
35578;SDS011;21687;48.900;9.188;2022-07-24T14:25:48;6.50;;;6.00;;
35578;SDS011;21687;48.900;9.188;2022-07-24T14:28:14;6.13;;;5.63;;
35578;SDS011;21687;48.900;9.188;2022-07-24T14:30:41;6.43;;;5.93;;
35578;SDS011;21687;48.900;9.188;2022-07-24T14:33:08;6.37;;;5.87;;
35578;SDS011;21687;48.900;9.188;2022-07-24T14:35:34;6.37;;;5.77;;
35578;SDS011;21687;48.900;9.188;2022-07-24T14:38:00;6.33;;;5.83;;
35578;SDS011;21687;48.900;9.188;2022-07-24T14:40:27;6.30;;;5.67;;
35578;SDS011;21687;48.900;9.188;2022-07-24T14:42:53;6.27;;;5.73;;
35578;SDS011;21687;48.900;9.188;2022-07-24T14:45:20;6.73;;;6.13;;
35578;SDS011;21687;48.900;9.188;2022-07-24T14:47:47;6.17;;;5.67;;
35578;SDS011;21687;48.900;9.188;2022-07-24T14:50:13;6.77;;;6.17;;
35578;SDS011;21687;48.900;9.188;2022-07-24T14:52:40;6.77;;;6.23;;
35578;SDS011;21687;48.900;9.188;2022-07-24T14:55:07;6.57;;;6.07;;
35578;SDS011;21687;48.900;9.188;2022-07-24T14:57:33;6.77;;;6.17;;
35578;SDS011;21687;48.900;9.188;2022-07-24T15:00:00;6.80;;;6.13;;
35578;SDS011;21687;48.900;9.188;2022-07-24T15:02:26;7.20;;;6.20;;
35578;SDS011;21687;48.900;9.188;2022-07-24T15:04:52;6.97;;;6.23;;
35578;SDS011;21687;48.900;9.188;2022-07-24T15:07:18;7.03;;;6.33;;
35578;SDS011;21687;48.900;9.188;2022-07-24T15:09:45;6.87;;;6.27;;
35578;SDS011;21687;48.900;9.188;2022-07-24T15:12:11;8.20;;;6.03;;
35578;SDS011;21687;48.900;9.188;2022-07-24T15:14:37;7.80;;;5.83;;
35578;SDS011;21687;48.900;9.188;2022-07-24T15:17:03;6.80;;;6.10;;
35578;SDS011;21687;48.900;9.188;2022-07-24T15:19:30;9.03;;;6.17;;
35578;SDS011;21687;48.900;9.188;2022-07-24T15:21:56;6.50;;;6.00;;
35578;SDS011;21687;48.900;9.188;2022-07-24T15:24:22;6.43;;;5.90;;
35578;SDS011;21687;48.900;9.188;2022-07-24T15:26:48;7.00;;;6.30;;
35578;SDS011;21687;48.900;9.188;2022-07-24T15:29:15;7.13;;;5.97;;
35578;SDS011;21687;48.900;9.188;2022-07-24T15:31:42;7.90;;;6.13;;